Time;durP1;ratioP1;P1;durP2;ratioP2;P2;SDS_P1;SDS_P2;PMS_P1;PMS_P2;Temp;Humidity;BMP_temperature;BMP_pressure;BME280_temperature;BME280_humidity;BME280_pressure;Samples;Min_cycle;Max_cycle;Signal;HPM_P1;HPM_P2
2023/03/21 00:01:46;;;;;;;;;;;11.20;99.90;;;;;;5147508;28;19914;-73
2023/03/21 00:04:21;;;;;;;;;;;11.10;99.90;;;;;;5161886;28;19932;-71
2023/03/21 00:06:52;;;;;;;;;;;11.10;99.90;;;;;;5170195;28;19917;-69
2023/03/21 00:19:25;;;;;;;;;;;11.20;99.90;;;;;;5155434;28;20316;-71
2023/03/21 00:21:56;;;;;;;;;;;11.20;99.90;;;;;;5131406;28;19913;-71
2023/03/21 00:24:31;;;;;;;;;;;11.10;99.90;;;;;;5171586;28;19920;-74
2023/03/21 00:27:07;;;;;;;;;;;11.20;99.90;;;;;;5151448;28;19928;-73
2023/03/21 00:29:45;;;;;;;;;;;11.10;99.90;;;;;;5135464;28;19915;-70
2023/03/21 00:32:22;;;;;;;;;;;11.10;99.90;;;;;;5148752;28;19909;-69
2023/03/21 00:34:53;;;;;;;;;;;11.10;99.90;;;;;;5137326;28;19913;-74
2023/03/21 00:37:27;;;;;;;;;;;11.00;99.90;;;;;;5150096;28;19920;-69
2023/03/21 00:39:58;;;;;;;;;;;11.10;99.90;;;;;;5155258;28;20360;-73
2023/03/21 00:42:29;;;;;;;;;;;11.10;99.90;;;;;;5152899;28;19941;-71
2023/03/21 00:45:06;;;;;;;;;;;11.00;99.90;;;;;;5150793;28;19910;-71
2023/03/21 00:47:37;;;;;;;;;;;11.10;99.90;;;;;;5141019;28;19917;-72
2023/03/21 00:50:10;;;;;;;;;;;11.10;99.90;;;;;;5170148;28;19917;-72
2023/03/21 00:52:44;;;;;;;;;;;11.20;99.90;;;;;;5173774;28;19917;-67
2023/03/21 00:55:22;;;;;;;;;;;11.20;99.90;;;;;;5122248;28;19921;-73
2023/03/21 00:57:53;;;;;;;;;;;11.20;99.90;;;;;;5144776;28;19916;-73
2023/03/21 01:03:10;;;;;;;;;;;11.30;99.90;;;;;;5168228;22;19932;-71
2023/03/21 01:08:36;;;;;;;;;;;11.40;99.90;;;;;;5156192;28;19977;-71
2023/03/21 01:11:14;;;;;;;;;;;11.50;99.90;;;;;;5127238;28;20240;-71
2023/03/21 01:13:48;;;;;;;;;;;11.40;99.90;;;;;;5150316;28;19928;-68
2023/03/21 01:16:19;;;;;;;;;;;11.40;99.90;;;;;;5152632;28;20242;-74
2023/03/21 01:18:50;;;;;;;;;;;11.40;99.90;;;;;;5170526;28;19923;-70
2023/03/21 01:21:22;;;;;;;;;;;11.50;99.90;;;;;;5154870;28;19921;-70
2023/03/21 01:23:53;;;;;;;;;;;11.40;99.90;;;;;;5154380;28;20530;-71
2023/03/21 01:26:24;;;;;;;;;;;11.40;99.90;;;;;;5185287;28;20370;-70
2023/03/21 01:28:56;;;;;;;;;;;11.40;99.90;;;;;;5145502;28;20248;-74
2023/03/21 01:31:29;;;;;;;;;;;11.40;99.90;;;;;;5144262;28;19917;-71
2023/03/21 01:34:03;;;;;;;;;;;11.40;99.90;;;;;;5145240;28;19921;-72
2023/03/21 01:36:35;;;;;;;;;;;11.30;99.90;;;;;;5138175;28;19925;-72
2023/03/21 01:39:07;;;;;;;;;;;11.30;99.90;;;;;;5151403;28;19931;-70
2023/03/21 01:41:46;;;;;;;;;;;11.40;99.90;;;;;;5137933;28;19909;-75
2023/03/21 01:44:20;;;;;;;;;;;11.30;99.90;;;;;;5170271;28;19923;-71
2023/03/21 01:46:54;;;;;;;;;;;11.30;99.90;;;;;;5188170;28;20055;-71
2023/03/21 01:49:33;;;;;;;;;;;11.30;99.90;;;;;;5156228;28;19921;-72
2023/03/21 01:52:15;;;;;;;;;;;11.20;99.90;;;;;;5174188;28;19923;-74
2023/03/21 01:54:46;;;;;;;;;;;11.20;99.90;;;;;;5158974;28;19917;-70
2023/03/21 01:57:31;;;;;;;;;;;11.20;99.90;;;;;;5141624;28;20248;-74
2023/03/21 02:00:11;;;;;;;;;;;11.10;99.90;;;;;;5127733;28;19917;-72
2023/03/21 02:02:54;;;;;;;;;;;11.20;99.90;;;;;;5152840;28;19914;-71
2023/03/21 02:05:37;;;;;;;;;;;11.10;99.90;;;;;;5144255;28;19918;-70
2023/03/21 02:08:12;;;;;;;;;;;11.20;99.90;;;;;;5125061;28;20133;-74
2023/03/21 02:10:47;;;;;;;;;;;11.10;99.90;;;;;;5135894;28;19928;-74
2023/03/21 02:13:19;;;;;;;;;;;11.20;99.90;;;;;;5151691;28;20271;-70
2023/03/21 02:16:04;;;;;;;;;;;11.20;99.90;;;;;;5131953;28;19926;-71
2023/03/21 02:18:47;;;;;;;;;;;11.20;99.90;;;;;;5147089;28;19921;-68
2023/03/21 02:21:30;;;;;;;;;;;11.20;99.90;;;;;;5144891;28;19926;-75
2023/03/21 02:24:31;;;;;;;;;;;11.20;99.90;;;;;;5149078;28;20210;-73
2023/03/21 02:27:17;;;;;;;;;;;11.20;99.90;;;;;;5161088;28;20227;-72
2023/03/21 02:30:26;;;;;;;;;;;11.20;99.90;;;;;;5143194;28;19918;-72
2023/03/21 02:33:15;;;;;;;;;;;11.20;99.90;;;;;;5157177;28;19918;-71
2023/03/21 02:36:08;;;;;;;;;;;11.30;99.90;;;;;;5128592;28;19928;-71
2023/03/21 02:38:51;;;;;;;;;;;11.30;99.90;;;;;;5150931;28;19921;-72
2023/03/21 02:41:28;;;;;;;;;;;11.40;99.90;;;;;;5141330;28;19914;-70
2023/03/21 02:44:14;;;;;;;;;;;11.40;99.90;;;;;;5148922;28;19921;-68
2023/03/21 02:47:11;;;;;;;;;;;11.40;99.90;;;;;;5137875;28;19922;-72
2023/03/21 02:50:01;;;;;;;;;;;11.40;99.90;;;;;;5126629;28;19922;-71
2023/03/21 02:52:40;;;;;;;;;;;11.40;99.90;;;;;;5149134;28;19936;-71
2023/03/21 02:55:24;;;;;;;;;;;11.30;99.90;;;;;;5116950;28;20365;-74
2023/03/21 02:58:03;;;;;;;;;;;11.30;99.90;;;;;;5143143;28;19959;-73
2023/03/21 03:00:42;;;;;;;;;;;11.30;99.90;;;;;;5162943;28;20226;-73
2023/03/21 03:03:14;;;;;;;;;;;11.20;99.90;;;;;;5156318;28;19914;-73
2023/03/21 03:05:50;;;;;;;;;;;11.10;99.90;;;;;;5148765;28;19922;-69
2023/03/21 03:08:41;;;;;;;;;;;11.10;99.90;;;;;;5097826;28;20037;-69
2023/03/21 03:11:27;;;;;;;;;;;11.10;99.90;;;;;;5146337;28;19924;-71
2023/03/21 03:14:17;;;;;;;;;;;11.10;99.90;;;;;;5141390;28;19925;-73
2023/03/21 03:16:52;;;;;;;;;;;11.00;99.90;;;;;;5113649;28;19915;-73
2023/03/21 03:19:31;;;;;;;;;;;10.90;99.90;;;;;;5125200;28;19922;-71
2023/03/21 03:22:11;;;;;;;;;;;10.90;99.90;;;;;;5135244;28;20322;-71
2023/03/21 03:24:46;;;;;;;;;;;10.80;99.90;;;;;;5111883;28;20134;-70
2023/03/21 03:27:23;;;;;;;;;;;10.80;99.90;;;;;;5149684;28;20045;-74
2023/03/21 03:29:57;;;;;;;;;;;10.80;99.90;;;;;;5115287;28;20282;-73
2023/03/21 03:32:56;;;;;;;;;;;10.80;99.90;;;;;;5109375;28;20065;-71
2023/03/21 03:35:28;;;;;;;;;;;10.70;99.90;;;;;;5124336;28;19922;-71
2023/03/21 03:38:02;;;;;;;;;;;10.60;99.90;;;;;;5112123;28;19914;-73
2023/03/21 03:40:44;;;;;;;;;;;10.60;99.90;;;;;;5146182;28;20612;-74
2023/03/21 03:43:23;;;;;;;;;;;10.60;99.90;;;;;;5156127;28;19943;-72
2023/03/21 03:46:05;;;;;;;;;;;10.60;99.90;;;;;;5135721;28;20350;-69
2023/03/21 03:48:54;;;;;;;;;;;10.60;99.90;;;;;;5136073;28;20417;-72
2023/03/21 03:51:38;;;;;;;;;;;10.60;99.90;;;;;;5117589;28;19914;-73
2023/03/21 03:54:20;;;;;;;;;;;10.60;99.90;;;;;;5130325;28;19913;-72
2023/03/21 03:56:51;;;;;;;;;;;10.60;99.90;;;;;;5144457;28;20231;-72
2023/03/21 03:59:25;;;;;;;;;;;10.60;99.90;;;;;;5115363;28;19917;-69
2023/03/21 04:01:56;;;;;;;;;;;10.60;99.90;;;;;;5116605;28;19925;-72
2023/03/21 04:04:32;;;;;;;;;;;10.60;99.90;;;;;;5118937;28;20371;-74
2023/03/21 04:07:10;;;;;;;;;;;10.50;99.90;;;;;;5162592;28;20190;-67
2023/03/21 04:09:47;;;;;;;;;;;10.50;99.90;;;;;;5114695;28;19920;-71
2023/03/21 04:12:23;;;;;;;;;;;10.50;99.90;;;;;;5127743;28;20005;-71
2023/03/21 04:14:55;;;;;;;;;;;10.50;99.90;;;;;;5106939;28;20353;-72
2023/03/21 04:17:32;;;;;;;;;;;10.40;99.90;;;;;;5139603;28;19932;-70
2023/03/21 04:20:05;;;;;;;;;;;10.40;99.90;;;;;;5159340;28;19910;-72
2023/03/21 04:22:36;;;;;;;;;;;10.30;99.90;;;;;;5150160;28;19932;-69
2023/03/21 04:25:08;;;;;;;;;;;10.20;99.90;;;;;;5116628;28;19951;-74
2023/03/21 04:27:41;;;;;;;;;;;10.10;99.90;;;;;;5163255;28;19923;-71
2023/03/21 04:30:15;;;;;;;;;;;10.10;99.90;;;;;;5125212;28;19913;-71
2023/03/21 04:32:55;;;;;;;;;;;10.00;99.90;;;;;;5118936;28;19918;-73
2023/03/21 04:35:29;;;;;;;;;;;9.90;99.90;;;;;;5143869;28;19926;-71
2023/03/21 04:38:08;;;;;;;;;;;9.80;99.90;;;;;;5127275;28;19926;-70
2023/03/21 04:40:39;;;;;;;;;;;9.80;99.90;;;;;;5158951;28;19921;-69
2023/03/21 04:43:13;;;;;;;;;;;9.70;99.90;;;;;;5108407;28;19958;-72
2023/03/21 04:45:52;;;;;;;;;;;9.60;99.90;;;;;;5136418;28;19925;-70
2023/03/21 04:48:23;;;;;;;;;;;9.60;99.90;;;;;;5150110;28;19924;-70
2023/03/21 04:50:57;;;;;;;;;;;9.60;99.90;;;;;;5113221;28;19929;-74
2023/03/21 04:53:30;;;;;;;;;;;9.60;99.90;;;;;;5158866;28;19929;-74
2023/03/21 04:56:05;;;;;;;;;;;9.60;99.90;;;;;;5119520;28;19934;-71
2023/03/21 04:58:41;;;;;;;;;;;9.60;99.90;;;;;;5129617;28;20259;-75
2023/03/21 05:01:19;;;;;;;;;;;9.50;99.90;;;;;;5150626;28;20165;-72
2023/03/21 05:03:51;;;;;;;;;;;9.30;99.90;;;;;;5126809;28;19920;-70
2023/03/21 05:06:26;;;;;;;;;;;9.20;99.90;;;;;;5137673;28;19973;-71
2023/03/21 05:09:04;;;;;;;;;;;9.10;99.90;;;;;;5127197;28;19929;-71
2023/03/21 05:11:37;;;;;;;;;;;9.00;99.90;;;;;;5161364;28;19914;-76
2023/03/21 05:14:10;;;;;;;;;;;8.90;99.90;;;;;;5140032;28;19922;-70
2023/03/21 05:16:54;;;;;;;;;;;8.90;99.90;;;;;;5146082;28;20273;-70
2023/03/21 05:19:39;;;;;;;;;;;9.00;99.90;;;;;;5140047;28;20445;-73
2023/03/21 05:22:13;;;;;;;;;;;9.10;99.90;;;;;;5141672;28;19917;-74
2023/03/21 05:24:55;;;;;;;;;;;9.10;99.90;;;;;;5116707;28;19922;-70
2023/03/21 05:27:35;;;;;;;;;;;9.10;99.90;;;;;;5136791;28;20328;-70
2023/03/21 05:30:09;;;;;;;;;;;9.00;99.90;;;;;;5120031;28;19999;-74
2023/03/21 05:32:42;;;;;;;;;;;9.00;99.90;;;;;;5118331;28;19924;-73
2023/03/21 05:35:13;;;;;;;;;;;9.00;99.90;;;;;;5121643;28;19923;-75
2023/03/21 05:37:44;;;;;;;;;;;9.00;99.90;;;;;;5161985;28;19914;-74
2023/03/21 05:40:16;;;;;;;;;;;9.10;99.90;;;;;;5141852;28;19926;-70
2023/03/21 05:42:51;;;;;;;;;;;9.20;99.90;;;;;;5127881;28;20221;-73
2023/03/21 05:45:26;;;;;;;;;;;9.30;99.90;;;;;;5120870;28;20498;-72
2023/03/21 05:48:02;;;;;;;;;;;9.50;99.90;;;;;;5128558;28;20339;-74
2023/03/21 05:50:34;;;;;;;;;;;9.60;99.90;;;;;;5127571;28;19928;-74
2023/03/21 05:53:08;;;;;;;;;;;9.70;99.90;;;;;;5153185;28;20210;-75
2023/03/21 05:55:45;;;;;;;;;;;9.80;99.90;;;;;;5136223;28;19921;-68
2023/03/21 05:58:16;;;;;;;;;;;10.00;99.90;;;;;;5120672;28;19922;-67
2023/03/21 06:00:50;;;;;;;;;;;10.20;99.90;;;;;;5086276;28;19917;-72
2023/03/21 06:03:24;;;;;;;;;;;10.30;99.90;;;;;;5134019;28;20381;-70
2023/03/21 06:05:55;;;;;;;;;;;10.40;99.90;;;;;;5157312;28;19933;-73
2023/03/21 06:08:29;;;;;;;;;;;10.50;99.90;;;;;;5141011;28;19909;-74
2023/03/21 06:11:03;;;;;;;;;;;10.60;99.90;;;;;;5121863;28;19924;-73
2023/03/21 06:13:37;;;;;;;;;;;10.60;99.90;;;;;;5118227;28;19933;-71
2023/03/21 06:16:11;;;;;;;;;;;10.70;99.90;;;;;;5115878;28;19921;-69
2023/03/21 06:18:45;;;;;;;;;;;10.80;99.90;;;;;;5152462;28;19918;-72
2023/03/21 06:21:17;;;;;;;;;;;10.80;99.90;;;;;;5159684;28;20340;-73
2023/03/21 06:23:52;;;;;;;;;;;10.80;99.90;;;;;;5122225;28;19910;-70
2023/03/21 06:26:24;;;;;;;;;;;10.80;99.90;;;;;;5103580;28;19925;-71
2023/03/21 06:28:59;;;;;;;;;;;10.80;99.90;;;;;;5135242;28;19909;-72
2023/03/21 06:31:32;;;;;;;;;;;10.80;99.90;;;;;;5115365;28;19917;-68
2023/03/21 06:34:06;;;;;;;;;;;10.80;99.90;;;;;;5102202;28;19918;-73
2023/03/21 06:36:45;;;;;;;;;;;10.90;99.90;;;;;;5133445;28;20213;-72
2023/03/21 06:39:19;;;;;;;;;;;11.00;99.90;;;;;;5138659;28;20129;-71
2023/03/21 06:41:52;;;;;;;;;;;11.20;99.90;;;;;;5102990;28;19932;-69
2023/03/21 06:44:25;;;;;;;;;;;11.40;99.90;;;;;;5156522;28;19910;-69
2023/03/21 06:46:58;;;;;;;;;;;11.50;99.90;;;;;;5110075;28;20240;-70
2023/03/21 06:49:47;;;;;;;;;;;11.70;99.90;;;;;;5138732;28;19909;-73
2023/03/21 06:52:24;;;;;;;;;;;11.80;99.90;;;;;;5139626;28;20159;-70
2023/03/21 06:54:58;;;;;;;;;;;11.90;99.90;;;;;;5141699;28;19909;-71
2023/03/21 06:57:32;;;;;;;;;;;12.00;99.90;;;;;;5113007;28;19921;-72
2023/03/21 07:00:04;;;;;;;;;;;12.10;99.90;;;;;;5136200;28;19910;-74
2023/03/21 07:02:37;;;;;;;;;;;12.20;99.90;;;;;;5140351;28;19922;-70
2023/03/21 07:05:11;;;;;;;;;;;12.40;99.90;;;;;;5126739;28;20054;-68
2023/03/21 07:07:45;;;;;;;;;;;12.40;99.90;;;;;;5134339;28;19922;-71
2023/03/21 07:10:16;;;;;;;;;;;12.50;99.90;;;;;;5133036;28;19917;-71
2023/03/21 07:12:50;;;;;;;;;;;12.40;99.90;;;;;;5113910;28;20499;-72
2023/03/21 07:15:22;;;;;;;;;;;12.60;99.90;;;;;;5166288;28;19924;-70
2023/03/21 07:17:58;;;;;;;;;;;12.70;99.90;;;;;;5109350;28;19928;-74
2023/03/21 07:20:31;;;;;;;;;;;12.70;99.90;;;;;;5147549;28;19922;-73
2023/03/21 07:23:03;;;;;;;;;;;12.70;99.90;;;;;;5149679;28;19910;-73
2023/03/21 07:25:39;;;;;;;;;;;12.80;99.90;;;;;;5132004;28;19941;-73
2023/03/21 07:28:13;;;;;;;;;;;13.00;99.90;;;;;;5110799;28;102992;-72
2023/03/21 07:30:46;;;;;;;;;;;13.00;99.90;;;;;;5133121;28;19930;-73
2023/03/21 07:33:20;;;;;;;;;;;13.20;99.90;;;;;;5120582;28;19949;-71
2023/03/21 07:35:58;;;;;;;;;;;13.40;99.90;;;;;;5133303;28;19922;-73
2023/03/21 07:38:30;;;;;;;;;;;13.20;99.90;;;;;;5124434;28;19922;-70
2023/03/21 07:41:04;;;;;;;;;;;13.30;99.90;;;;;;5116412;28;19918;-73
2023/03/21 07:43:35;;;;;;;;;;;13.20;99.90;;;;;;5121437;28;19913;-73
2023/03/21 07:46:06;;;;;;;;;;;13.30;99.90;;;;;;5128565;28;19924;-74
2023/03/21 07:48:38;;;;;;;;;;;13.40;99.90;;;;;;5123894;28;19986;-72
2023/03/21 07:51:09;;;;;;;;;;;13.40;99.90;;;;;;5091650;28;19917;-70
2023/03/21 07:53:40;;;;;;;;;;;13.30;99.90;;;;;;5107077;28;19926;-70
2023/03/21 07:56:12;;;;;;;;;;;13.30;99.90;;;;;;5097260;28;19917;-71
2023/03/21 07:58:43;;;;;;;;;;;13.30;99.90;;;;;;5108348;28;19918;-72
2023/03/21 08:01:14;;;;;;;;;;;13.40;99.90;;;;;;5117781;28;19929;-73
2023/03/21 08:03:50;;;;;;;;;;;13.30;99.90;;;;;;5121731;28;19926;-69
2023/03/21 08:06:22;;;;;;;;;;;13.30;99.90;;;;;;5088390;28;19930;-70
2023/03/21 08:08:58;;;;;;;;;;;13.30;99.90;;;;;;5116488;28;20021;-73
2023/03/21 08:11:31;;;;;;;;;;;13.50;99.90;;;;;;5096765;28;19920;-74
2023/03/21 08:14:03;;;;;;;;;;;13.60;99.90;;;;;;5104039;28;19918;-71
2023/03/21 08:16:36;;;;;;;;;;;13.50;99.90;;;;;;5100652;29;19918;-71
2023/03/21 08:19:10;;;;;;;;;;;13.70;99.90;;;;;;5092588;28;20005;-71
2023/03/21 08:21:48;;;;;;;;;;;13.70;99.90;;;;;;5067308;29;20367;-72
2023/03/21 08:24:19;;;;;;;;;;;14.00;99.90;;;;;;5082347;29;19926;-75
2023/03/21 08:26:53;;;;;;;;;;;14.00;99.90;;;;;;5121773;28;20259;-72
2023/03/21 08:29:24;;;;;;;;;;;14.20;99.90;;;;;;5065261;28;19926;-73
2023/03/21 08:32:01;;;;;;;;;;;14.10;99.90;;;;;;5093189;29;19929;-72
2023/03/21 08:34:33;;;;;;;;;;;14.30;99.90;;;;;;5081386;29;19925;-69
2023/03/21 08:37:06;;;;;;;;;;;14.60;99.90;;;;;;5091074;29;20395;-70
2023/03/21 08:39:38;;;;;;;;;;;14.70;99.90;;;;;;5087724;28;19925;-73
2023/03/21 08:42:15;;;;;;;;;;;14.90;99.90;;;;;;5080610;29;19928;-74
2023/03/21 08:44:51;;;;;;;;;;;14.90;99.90;;;;;;5101746;28;19937;-71
2023/03/21 08:47:22;;;;;;;;;;;15.10;99.90;;;;;;5090667;28;19919;-73
2023/03/21 08:49:57;;;;;;;;;;;15.10;99.90;;;;;;5073401;28;19926;-70
2023/03/21 08:52:34;;;;;;;;;;;15.40;99.90;;;;;;5079561;29;19930;-69
2023/03/21 08:55:08;;;;;;;;;;;15.60;99.90;;;;;;5070825;28;19926;-72
2023/03/21 08:57:43;;;;;;;;;;;15.80;99.90;;;;;;5097704;29;19922;-72
2023/03/21 09:00:16;;;;;;;;;;;15.10;99.90;;;;;;5067360;28;19934;-73
2023/03/21 09:02:50;;;;;;;;;;;15.20;99.90;;;;;;5113214;28;19941;-71
2023/03/21 09:05:25;;;;;;;;;;;15.70;99.90;;;;;;5115647;28;20205;-71
2023/03/21 09:07:57;;;;;;;;;;;15.80;99.90;;;;;;5098276;28;19910;-69
2023/03/21 09:10:34;;;;;;;;;;;16.10;99.90;;;;;;5115786;28;20110;-70
2023/03/21 09:13:05;;;;;;;;;;;16.20;99.90;;;;;;5113157;28;19911;-72
2023/03/21 09:15:39;;;;;;;;;;;16.60;99.90;;;;;;5084298;28;19928;-71
2023/03/21 09:18:15;;;;;;;;;;;16.30;99.90;;;;;;5081481;28;20306;-72
2023/03/21 09:20:59;;;;;;;;;;;16.20;99.90;;;;;;5107641;28;20041;-68
2023/03/21 09:23:31;;;;;;;;;;;15.90;99.90;;;;;;5113103;28;19925;-73
2023/03/21 09:26:02;;;;;;;;;;;16.10;99.90;;;;;;5098997;28;19933;-72
2023/03/21 09:28:36;;;;;;;;;;;16.20;99.90;;;;;;5124029;28;20127;-74
2023/03/21 09:31:10;;;;;;;;;;;16.40;99.90;;;;;;5097106;28;19928;-71
2023/03/21 09:33:43;;;;;;;;;;;16.30;99.90;;;;;;5130459;28;20364;-73
2023/03/21 09:36:17;;;;;;;;;;;15.90;99.90;;;;;;5130978;28;19921;-68
2023/03/21 09:38:58;;;;;;;;;;;15.90;99.90;;;;;;5131314;28;20124;-73
2023/03/21 09:41:51;;;;;;;;;;;16.00;99.90;;;;;;5129047;28;19929;-73
2023/03/21 09:44:48;;;;;;;;;;;16.20;99.90;;;;;;5146536;28;19916;-71
2023/03/21 09:47:27;;;;;;;;;;;16.70;99.90;;;;;;5079790;28;20125;-72
2023/03/21 09:50:27;;;;;;;;;;;16.90;99.90;;;;;;5114476;28;19929;-70
2023/03/21 09:53:17;;;;;;;;;;;16.40;99.90;;;;;;5114449;28;19913;-73
2023/03/21 09:55:48;;;;;;;;;;;16.00;99.90;;;;;;5133059;28;19910;-71
2023/03/21 09:58:28;;;;;;;;;;;15.60;99.90;;;;;;5113682;28;19918;-71
2023/03/21 10:01:09;;;;;;;;;;;15.70;99.90;;;;;;5095831;28;19917;-70
2023/03/21 10:03:43;;;;;;;;;;;16.50;99.90;;;;;;5096231;28;20345;-70
2023/03/21 10:06:16;;;;;;;;;;;16.30;99.90;;;;;;5105861;28;19926;-72
2023/03/21 10:08:48;;;;;;;;;;;15.90;99.90;;;;;;5150545;28;19992;-72
2023/03/21 10:11:35;;;;;;;;;;;16.40;99.90;;;;;;5135549;28;19923;-74
2023/03/21 10:14:15;;;;;;;;;;;16.80;99.90;;;;;;5122676;28;20221;-69
2023/03/21 10:16:56;;;;;;;;;;;16.90;99.90;;;;;;5120194;28;20260;-71
2023/03/21 10:19:30;;;;;;;;;;;16.80;99.90;;;;;;5126420;28;20402;-72
2023/03/21 10:22:05;;;;;;;;;;;17.20;99.90;;;;;;5116097;28;19918;-72
2023/03/21 10:24:40;;;;;;;;;;;17.80;99.90;;;;;;5133185;28;19925;-70
2023/03/21 10:27:14;;;;;;;;;;;17.00;99.90;;;;;;5131097;28;20466;-73
2023/03/21 10:29:51;;;;;;;;;;;16.40;99.90;;;;;;5133099;28;19922;-74
2023/03/21 10:32:23;;;;;;;;;;;16.70;99.90;;;;;;5129467;28;19959;-72
2023/03/21 10:34:58;;;;;;;;;;;17.50;99.90;;;;;;5117110;28;20565;-73
2023/03/21 10:37:34;;;;;;;;;;;18.00;99.90;;;;;;5117296;28;19922;-71
2023/03/21 10:40:08;;;;;;;;;;;18.10;99.90;;;;;;5134432;28;19925;-73
2023/03/21 10:42:44;;;;;;;;;;;17.70;99.90;;;;;;5149870;28;19918;-71
2023/03/21 10:45:19;;;;;;;;;;;17.50;99.90;;;;;;5114505;28;19928;-71
2023/03/21 10:47:51;;;;;;;;;;;17.90;99.90;;;;;;5116037;28;19914;-74
2023/03/21 10:50:29;;;;;;;;;;;19.00;99.90;;;;;;5148752;28;20331;-68
2023/03/21 10:53:01;;;;;;;;;;;18.50;99.90;;;;;;5149777;28;19921;-72
2023/03/21 10:55:33;;;;;;;;;;;17.80;99.90;;;;;;5130944;28;19990;-71
2023/03/21 10:58:17;;;;;;;;;;;18.90;99.90;;;;;;5146242;28;19933;-74
2023/03/21 11:00:56;;;;;;;;;;;19.60;99.90;;;;;;5107899;28;19929;-74
2023/03/21 11:03:31;;;;;;;;;;;18.60;99.90;;;;;;5168673;28;20442;-72
2023/03/21 11:06:13;;;;;;;;;;;19.00;99.90;;;;;;5125979;28;19921;-72
2023/03/21 11:08:53;;;;;;;;;;;20.30;99.90;;;;;;5125084;28;20448;-68
2023/03/21 11:11:39;;;;;;;;;;;21.70;99.90;;;;;;5111965;29;19925;-74
2023/03/21 11:14:47;;;;;;;;;;;22.90;99.90;;;;;;5096628;29;20368;-72
2023/03/21 11:17:28;;;;;;;;;;;23.00;99.90;;;;;;5111933;28;19910;-74
2023/03/21 11:20:11;;;;;;;;;;;23.10;99.90;;;;;;5127351;28;19925;-75
2023/03/21 11:22:45;;;;;;;;;;;23.10;99.90;;;;;;5125942;28;19944;-75
2023/03/21 11:25:39;;;;;;;;;;;22.60;99.90;;;;;;5095752;29;19918;-76
2023/03/21 11:28:15;;;;;;;;;;;23.60;99.90;;;;;;5111688;28;19918;-71
2023/03/21 11:30:56;;;;;;;;;;;24.20;99.90;;;;;;5125620;28;19918;-67
2023/03/21 11:33:35;;;;;;;;;;;23.30;99.90;;;;;;5096109;29;19910;-74
2023/03/21 11:36:26;;;;;;;;;;;23.40;99.90;;;;;;5111808;29;20123;-73
2023/03/21 11:39:12;;;;;;;;;;;23.30;99.90;;;;;;5128745;28;19920;-73
2023/03/21 11:41:46;;;;;;;;;;;24.00;99.90;;;;;;5098673;28;19918;-71
2023/03/21 11:44:42;;;;;;;;;;;24.30;99.90;;;;;;5097231;28;19918;-69
2023/03/21 11:47:19;;;;;;;;;;;24.50;99.90;;;;;;5110119;28;19933;-69
2023/03/21 11:49:55;;;;;;;;;;;25.00;99.90;;;;;;5093160;29;19920;-72
2023/03/21 11:53:16;;;;;;;;;;;23.40;99.90;;;;;;5111495;28;19922;-71
2023/03/21 11:55:53;;;;;;;;;;;21.80;99.90;;;;;;5112215;28;19918;-72
2023/03/21 11:58:55;;;;;;;;;;;21.40;99.90;;;;;;5141848;28;19919;-74
2023/03/21 12:01:44;;;;;;;;;;;21.30;99.90;;;;;;5111849;28;19914;-70
2023/03/21 12:04:30;;;;;;;;;;;23.00;99.90;;;;;;5123027;28;19918;-74
2023/03/21 12:07:15;;;;;;;;;;;23.20;99.90;;;;;;5126981;28;19922;-70
2023/03/21 12:10:12;;;;;;;;;;;23.30;99.90;;;;;;5111232;28;19910;-69
2023/03/21 12:12:54;;;;;;;;;;;22.70;99.90;;;;;;5110557;29;19918;-73
2023/03/21 12:15:53;;;;;;;;;;;22.70;99.90;;;;;;5128507;28;19940;-71
2023/03/21 12:18:40;;;;;;;;;;;21.80;99.90;;;;;;5108640;28;19910;-71
2023/03/21 12:21:22;;;;;;;;;;;21.80;99.90;;;;;;5111107;29;19929;-67
2023/03/21 12:23:56;;;;;;;;;;;22.00;99.90;;;;;;5094682;29;19940;-71
2023/03/21 12:26:31;;;;;;;;;;;23.40;99.90;;;;;;5110061;29;19930;-69
2023/03/21 12:29:24;;;;;;;;;;;24.20;99.90;;;;;;5126120;28;19926;-72
2023/03/21 12:32:02;;;;;;;;;;;23.50;99.90;;;;;;5108414;28;19906;-72
2023/03/21 12:34:44;;;;;;;;;;;22.50;99.90;;;;;;5141497;28;19919;-73
2023/03/21 12:37:24;;;;;;;;;;;22.90;99.90;;;;;;5092849;29;19925;-73
2023/03/21 12:40:06;;;;;;;;;;;21.70;99.90;;;;;;5143204;28;20321;-72
2023/03/21 12:43:02;;;;;;;;;;;20.40;99.90;;;;;;5059535;29;20095;-73
2023/03/21 12:45:36;;;;;;;;;;;20.70;99.90;;;;;;5109884;29;19918;-69
2023/03/21 12:48:15;;;;;;;;;;;20.50;99.90;;;;;;5126022;28;20416;-70
2023/03/21 12:50:52;;;;;;;;;;;20.40;99.90;;;;;;5100093;29;20350;-73
2023/03/21 12:53:30;;;;;;;;;;;21.80;99.90;;;;;;5094837;29;19928;-71
2023/03/21 12:56:08;;;;;;;;;;;22.40;99.90;;;;;;5141292;28;19918;-72
2023/03/21 12:58:45;;;;;;;;;;;22.10;99.90;;;;;;5110576;28;19918;-74
2023/03/21 13:01:18;;;;;;;;;;;20.70;99.90;;;;;;5094115;28;19933;-73
2023/03/21 13:04:25;;;;;;;;;;;19.60;99.90;;;;;;5145925;28;19925;-74
2023/03/21 13:07:01;;;;;;;;;;;18.90;99.90;;;;;;5055231;28;19922;-74
2023/03/21 13:09:42;;;;;;;;;;;18.30;99.90;;;;;;5098394;28;20278;-74
2023/03/21 13:12:37;;;;;;;;;;;17.90;99.90;;;;;;5129577;28;20184;-74
2023/03/21 13:15:49;;;;;;;;;;;17.50;99.90;;;;;;5141760;28;19991;-74
2023/03/21 13:18:49;;;;;;;;;;;17.40;99.90;;;;;;5110616;29;20489;-69
2023/03/21 13:21:24;;;;;;;;;;;16.90;99.90;;;;;;5127072;28;19918;-68
2023/03/21 13:24:04;;;;;;;;;;;16.80;99.90;;;;;;5109760;29;19924;-73
2023/03/21 13:26:44;;;;;;;;;;;16.70;99.90;;;;;;5062881;29;19910;-73
2023/03/21 13:29:28;;;;;;;;;;;16.70;99.90;;;;;;5114497;28;20236;-73
2023/03/21 13:32:27;;;;;;;;;;;16.80;99.90;;;;;;5118769;28;20104;-71
2023/03/21 13:35:15;;;;;;;;;;;16.90;99.90;;;;;;5116766;28;20229;-74
2023/03/21 13:37:52;;;;;;;;;;;17.10;99.90;;;;;;5112479;28;19918;-74
2023/03/21 13:40:43;;;;;;;;;;;16.90;99.90;;;;;;5108582;28;20682;-74
2023/03/21 13:43:42;;;;;;;;;;;17.10;99.90;;;;;;5092274;29;20384;-72
2023/03/21 13:46:25;;;;;;;;;;;17.50;99.90;;;;;;5108521;28;19911;-73
2023/03/21 13:48:57;;;;;;;;;;;18.40;99.90;;;;;;5130306;28;20490;-64
2023/03/21 13:51:28;;;;;;;;;;;18.50;99.90;;;;;;5147346;28;19918;-66
2023/03/21 13:54:17;;;;;;;;;;;18.30;99.90;;;;;;5130608;28;19920;-70
2023/03/21 13:57:05;;;;;;;;;;;17.90;99.90;;;;;;5097584;29;19925;-71
2023/03/21 13:59:42;;;;;;;;;;;17.60;99.90;;;;;;5112564;28;19926;-69
2023/03/21 14:02:37;;;;;;;;;;;17.20;99.90;;;;;;5078605;29;20274;-72
2023/03/21 14:05:22;;;;;;;;;;;17.00;99.90;;;;;;5087894;28;19913;-72
2023/03/21 14:08:04;;;;;;;;;;;17.00;99.90;;;;;;5123360;28;19925;-70
2023/03/21 14:10:38;;;;;;;;;;;17.10;99.90;;;;;;5150568;28;19954;-73
2023/03/21 14:13:19;;;;;;;;;;;16.90;99.90;;;;;;5118604;28;19922;-68
2023/03/21 14:15:58;;;;;;;;;;;16.80;99.90;;;;;;5154730;28;19922;-70
2023/03/21 14:18:29;;;;;;;;;;;16.90;99.90;;;;;;5116649;28;19913;-74
2023/03/21 14:21:04;;;;;;;;;;;16.90;99.90;;;;;;5148614;28;19918;-73
2023/03/21 14:23:37;;;;;;;;;;;17.00;99.90;;;;;;5134823;28;20184;-70
2023/03/21 14:26:13;;;;;;;;;;;17.00;99.90;;;;;;5133458;28;19940;-71
2023/03/21 14:28:50;;;;;;;;;;;17.20;99.90;;;;;;5122481;28;19910;-69
2023/03/21 14:31:21;;;;;;;;;;;17.20;99.90;;;;;;5099202;28;20021;-72
2023/03/21 14:33:56;;;;;;;;;;;17.30;99.90;;;;;;5133853;28;20195;-69
2023/03/21 14:36:33;;;;;;;;;;;17.40;99.90;;;;;;5149644;28;19918;-70
2023/03/21 14:39:12;;;;;;;;;;;17.70;99.90;;;;;;5116850;28;19924;-70
2023/03/21 14:42:07;;;;;;;;;;;17.60;99.90;;;;;;5119831;28;19916;-70
2023/03/21 14:44:40;;;;;;;;;;;17.70;99.90;;;;;;5145754;28;19922;-71
2023/03/21 14:47:20;;;;;;;;;;;17.60;99.90;;;;;;5086358;28;20296;-71
2023/03/21 14:49:51;;;;;;;;;;;17.40;99.90;;;;;;5083539;28;20448;-70
2023/03/21 14:52:34;;;;;;;;;;;17.30;99.90;;;;;;5117451;28;19928;-70
2023/03/21 14:55:13;;;;;;;;;;;17.30;99.90;;;;;;5108899;28;19918;-74
2023/03/21 14:57:47;;;;;;;;;;;17.20;99.90;;;;;;5136037;28;20191;-72
2023/03/21 15:00:26;;;;;;;;;;;17.20;99.90;;;;;;5119300;28;19928;-72
2023/03/21 15:03:01;;;;;;;;;;;17.00;99.90;;;;;;5121138;28;19929;-70
2023/03/21 15:05:39;;;;;;;;;;;17.00;99.90;;;;;;5123444;28;19929;-71
2023/03/21 15:08:10;;;;;;;;;;;16.90;99.90;;;;;;5084219;29;19919;-70
2023/03/21 15:10:53;;;;;;;;;;;17.00;99.90;;;;;;5135393;28;20203;-71
2023/03/21 15:13:41;;;;;;;;;;;16.90;99.90;;;;;;5115782;28;19916;-73
2023/03/21 15:16:13;;;;;;;;;;;16.90;99.90;;;;;;5090294;29;19917;-73
2023/03/21 15:18:45;;;;;;;;;;;17.00;99.90;;;;;;5109587;28;20458;-71
2023/03/21 15:21:23;;;;;;;;;;;16.90;99.90;;;;;;5093357;29;20044;-73
2023/03/21 15:24:02;;;;;;;;;;;16.90;99.90;;;;;;5095416;28;19909;-71
2023/03/21 15:26:33;;;;;;;;;;;16.80;99.90;;;;;;5061024;29;20567;-71
2023/03/21 15:29:09;;;;;;;;;;;16.80;99.90;;;;;;5111233;29;19922;-68
2023/03/21 15:31:41;;;;;;;;;;;16.80;99.90;;;;;;5094586;29;20526;-69
2023/03/21 15:34:26;;;;;;;;;;;16.90;99.90;;;;;;5141469;28;19918;-71
2023/03/21 15:37:04;;;;;;;;;;;16.90;99.90;;;;;;5110072;29;19915;-74